createdAt,value
2022-07-29T01:21:47.512Z,100487.72
2022-07-29T01:32:28.227Z,100483.97
2022-07-29T01:54:21.822Z,100480.19
2022-07-29T06:33:06.230Z,100502.19
2022-07-29T06:53:58.448Z,100492.59
2022-07-29T07:04:25.329Z,100498.84
2022-07-29T07:47:24.178Z,100488.78
2022-07-29T07:58:15.159Z,100476.63
2022-07-29T08:19:44.108Z,100453.50
2022-07-29T09:23:44.846Z,100424.53
2022-07-29T10:16:58.237Z,100384.12
2022-07-29T11:20:42.516Z,100321.75
2022-07-29T11:30:59.797Z,100316.94
2022-07-29T11:41:53.797Z,100304.94
2022-07-29T12:02:48.498Z,100277.97
2022-07-29T12:13:12.577Z,100278.13
2022-07-29T12:23:34.661Z,100262.44
2022-07-29T12:45:52.541Z,100232.75
2022-07-29T12:57:03.233Z,100214.34
2022-07-29T13:08:21.976Z,100214.03
2022-07-29T13:30:06.936Z,100186.50
2022-07-29T13:40:21.545Z,100172.16
2022-07-29T13:50:55.348Z,100164.03
2022-07-29T14:12:11.392Z,100143.28
2022-07-29T14:22:29.965Z,100138.31
2022-07-29T14:54:29.259Z,100111.66
2022-07-29T15:05:01.680Z,100097.19
2022-07-29T16:20:53.366Z,100058.38
2022-07-29T16:31:24.628Z,100053.50
2022-07-29T18:28:08.614Z,100113.97
2022-07-29T18:38:11.882Z,100122.16
2022-07-29T18:48:16.533Z,100135.41
2022-07-29T18:58:20.126Z,100138.34
2022-07-29T19:08:24.710Z,100162.66
2022-07-29T19:18:28.385Z,100177.97
2022-07-29T19:28:33.687Z,100174.03
2022-07-29T19:38:38.246Z,100186.69
2022-07-29T19:48:42.912Z,100176.84
2022-07-29T19:58:46.233Z,100181.06
2022-07-29T20:08:55.362Z,100189.69
2022-07-29T20:19:01.882Z,100194.69
2022-07-29T20:29:06.456Z,100195.91
2022-07-29T20:39:09.720Z,100209.19
2022-07-29T20:49:14.361Z,100215.03
2022-07-29T20:59:17.818Z,100230.09
2022-07-29T21:09:22.399Z,100240.84
2022-07-29T21:19:26.283Z,100229.03
2022-07-29T21:29:31.296Z,100240.19
2022-07-29T21:39:34.428Z,100238.34
2022-07-29T21:49:39.023Z,100251.53
2022-07-29T21:59:42.157Z,100263.44
2022-07-29T22:09:46.687Z,100281.25
2022-07-29T22:19:49.858Z,100294.84
2022-07-29T22:29:54.402Z,100293.34
2022-07-29T22:39:58.372Z,100277.91
2022-07-29T22:50:02.977Z,100271.50
2022-07-29T23:00:07.650Z,100270.19
2022-07-29T23:10:12.493Z,100258.75
2022-07-29T23:20:15.788Z,100243.34
2022-07-29T23:30:20.300Z,100233.37
2022-07-29T23:40:23.479Z,100226.87
2022-07-29T23:50:27.992Z,100221.94
